Nearby Airport METAR Reports

 

KVSF - Springfield, Vermont, USA
Distance from station: WSW 8mi, 12km
Updated: 4:03am
Mist, Mostly cloudy
Mist, Mostly cloudy
 Wind from calm
Wind: Calm
Temperature: 66°F , 19°C
Dew Point: 66°F , 19°C
Humidity: 100%
Barometer: 29.95 inHg , 1014.2 hPa
Summary: Mist
Clouds: Mostly cloudy
Visibility: 5 miles , 8 km
Cloud details: Mostly cloudy 200 ft
2018/08/16 08:03 KVSF 160803Z AUTO 00000KT 5SM BR BKN002 19/19 A2995 RMK AO2 T01890189
KLEB - Lebanon, New Hampshire, USA
Distance from station: N 18mi, 29km
Updated: 3:53am
Mist, Few clouds
Mist, Few clouds
 Wind from calm
Wind: Calm
Temperature: 70°F , 21°C
Dew Point: 64°F , 18°C
Humidity: 83%
Barometer: 29.95 inHg , 1014.2 hPa
Summary: Mist
Clouds: Few Clouds
Visibility: 6 miles , 10 km
Cloud details: Few Clouds 100 ft
2018/08/16 07:53 KLEB 160753Z AUTO 00000KT 6SM BR FEW001 21/18 A2995 RMK AO2 SLP128 T02060183
KRUT - Rutland State, Vermont, USA
Distance from station: WNW 31mi, 50km
Updated: 10:04pm
NOT Current
Heavy thunderstorm, Rain, Mist, Overcast
Heavy thunderstorm, Rain, Mist, Overcast
 Wind from ESE
Wind: ESE 10 mph , 17 km/h
Temperature: 66°F , 19°C
Dew Point: 66°F , 19°C
Humidity: 100%
Barometer: 29.87 inHg , 1011.5 hPa
Summary: Heavy thunderstorm, Rain, Mist
Clouds: Overcast
Visibility: 3 miles , 5 km
Cloud details: Few Clouds 1900 ft
Mostly cloudy 3300 ft
Overcast 4300 ft
2018/08/15 02:04 KRUT 150204Z AUTO 12009KT 3SM +TSRA BR FEW019 BKN033 OVC043 19/19 A2987 RMK AO2 LTG DSNT SE P0007 $
 
KEEN - Keene/Dillant, New Hampshire, USA
Distance from station: S 34mi, 55km
Updated: 4:05am
Mist, Overcast
Mist, Overcast
 Wind from calm
Wind: Calm
Barometer: 29.96 inHg , 1014.6 hPa
Summary: Mist
Clouds: Overcast
Visibility: 1 mile , 2 km
Cloud details: Overcast 200 ft
2018/08/16 08:05 KEEN 160805Z AUTO 00000KT 1SM BR OVC002 A2996 RMK AO2 FZRANO $
K1P1 - Plymouth, New Hampshire, USA
Distance from station: NE 42mi, 67km
Updated: 3:55am
Clear
Clear
 Wind from WNW
Wind: WNW 5 mph , 7 km/h
Temperature: 66°F , 19°C
Dew Point: 64°F , 18°C
Humidity: 94%
Barometer: 29.93 inHg , 1013.5 hPa
Clouds: Clear
Visibility: 10 miles , 16 km
2018/08/16 07:55 K1P1 160755Z AUTO 29004KT 10SM CLR 19/18 A2993 RMK AO2 T01930177
KAFN - Jaffrey, New Hampshire, USA
Distance from station: SSE 44mi, 70km
Updated: 3:52am
Clear
Clear
 Wind from SSW
Wind: SSW 3 mph , 6 km/h
Temperature: 70°F , 21°C
Dew Point: 68°F , 20°C
Humidity: 94%
Barometer: 29.98 inHg , 1015.2 hPa
Clouds: Clear
Visibility: 9 miles , 14 km
2018/08/16 07:52 KAFN 160752Z AUTO 21003KT 9SM CLR 21/20 A2998 RMK AO2 SLP148 T02110200
 
KCON - Concord, New Hampshire, USA
Distance from station: ESE 45mi, 73km
Updated: 3:51am
Clear
Clear
 Wind from calm
Wind: Calm
Temperature: 70°F , 21°C
Dew Point: 68°F , 20°C
Humidity: 94%
Barometer: 29.92 inHg , 1013.2 hPa
Clouds: Clear
Visibility: 10 miles , 16 km
2018/08/16 07:51 KCON 160751Z AUTO 00000KT 10SM CLR 21/20 A2992 RMK AO2 SLP129 T02060200
KLCI - Laconia Muni, New Hampshire, USA
Distance from station: ENE 49mi, 80km
Updated: 3:56am
Clear
Clear
 Wind from WSW
Wind: WSW 5 mph , 7 km/h
Temperature: 70°F , 21°C
Dew Point: 66°F , 19°C
Humidity: 88%
Barometer: 29.93 inHg , 1013.5 hPa
Clouds: Clear
Visibility: 10 miles , 16 km
2018/08/16 07:56 KLCI 160756Z AUTO 25004KT 10SM CLR 21/19 A2993 RMK AO2 SLP144 T02110189
KDDH - Bennington, Vermont, USA
Distance from station: SW 55mi, 89km
Updated: 3:54am
Mist, Few clouds
Mist, Few clouds
 Wind from calm
Wind: Calm
Temperature: 66°F , 19°C
Dew Point: 64°F , 18°C
Humidity: 94%
Barometer: 29.99 inHg , 1015.6 hPa
Summary: Mist
Clouds: Few Clouds
Visibility: 5 miles , 8 km
Cloud details: Few Clouds 3400 ft
2018/08/16 07:54 KDDH 160754Z AUTO 00000KT 5SM BR FEW034 19/18 A2999 RMK AO2 SLP150 T01890183
 
K6B0 - Middlebury, Vermont, USA
Distance from station: NW 56mi, 90km
Updated: 3:55am
Nearby thunderstorm, Mist, Overcast
Nearby thunderstorm, Mist, Overcast
 Wind from calm
Wind: Calm
Temperature: 66°F , 19°C
Dew Point: 66°F , 19°C
Humidity: 100%
Barometer: 29.95 inHg , 1014.2 hPa
Summary: Nearby thunderstorm, Mist
Clouds: Overcast
Visibility: 5 miles , 8 km
Cloud details: Mostly cloudy 2900 ft
Overcast 3300 ft
2018/08/16 07:55 K6B0 160755Z AUTO 00000KT 5SM VCTS BR BKN029 OVC033 19/19 A2995 RMK AO2 T01930190
KMHT - Manchester, New Hampshire, USA
Distance from station: ESE 56mi, 90km
Updated: 3:53am
Partly cloudy
Partly cloudy
 Wind from calm
Wind: Calm
Temperature: 73°F , 23°C
Dew Point: 70°F , 21°C
Humidity: 89%
Barometer: 29.91 inHg , 1012.9 hPa
Clouds: Partly cloudy
Visibility: 10 miles , 16 km
Cloud details: Partly cloudy 23000 ft
2018/08/16 07:53 KMHT 160753Z 00000KT 10SM SCT230 23/21 A2991 RMK AO2 SLP137 T02280206
KORE - Orange, Massachusetts, USA
Distance from station: S 56mi, 90km
Updated: 3:52am
Mist, Clear
Mist, Clear
 Wind from calm
Wind: Calm
Temperature: 70°F , 21°C
Dew Point: 66°F , 19°C
Humidity: 88%
Barometer: 29.98 inHg , 1015.2 hPa
Summary: Mist
Clouds: Clear
Visibility: 5 miles , 8 km
2018/08/16 07:52 KORE 160752Z AUTO 00000KT 5SM BR CLR 21/19 A2998 RMK AO2 SLP147 T02060194 $
 
KMPV - Montpelier/Barre, Vermont, USA
Distance from station: N 58mi, 93km
Updated: 3:51am
Light rain, Overcast
Light rain, Overcast
 Wind from calm
Wind: Calm
Temperature: 66°F , 19°C
Dew Point: 66°F , 19°C
Humidity: 100%
Barometer: 30.00 inHg , 1015.9 hPa
Summary: Light rain
Clouds: Overcast
Visibility: 9 miles , 14 km
Cloud details: Overcast 2700 ft
2018/08/16 07:51 KMPV 160751Z AUTO 00000KT 9SM -RA OVC027 19/19 A3000 RMK AO2 RAB35 SLP152 P0000 T01890189
KASH - Nashua/Boire Fld, New Hampshire, USA
Distance from station: SE 59mi, 95km
Updated: 3:56am
Clear
Clear
 Wind from calm
Wind: Calm
Temperature: 70°F , 21°C
Dew Point: 70°F , 21°C
Humidity: 100%
Barometer: 29.93 inHg , 1013.5 hPa
Clouds: Clear
Visibility: 9 miles , 14 km
2018/08/16 07:56 KASH 160756Z AUTO 00000KT 9SM CLR 21/21 A2993 RMK AO2 SLP143 T02110211 PNO $
KAQW - North Adams, Massachusetts, USA
Distance from station: SW 62mi, 99km
Updated: 3:52am
Few Clouds
Few Clouds
 Wind from NW
Wind: NW 5 mph , 7 km/h
Temperature: 70°F , 21°C
Dew Point: 66°F , 19°C
Humidity: 88%
Barometer: 29.98 inHg , 1015.2 hPa
Clouds: Few Clouds
Visibility: 8 miles , 13 km
Cloud details: Few Clouds 6000 ft
2018/08/16 07:52 KAQW 160752Z AUTO 31004KT 8SM FEW060 21/19 A2998 RMK AO2 SLP147 T02110189
 
KGFL - Glens Falls, New York, USA
Distance from station: W 63mi, 101km
Updated: 4:04am
Mist, Clear
Mist, Clear
 Wind from calm
Wind: Calm
Temperature: 64°F , 18°C
Dew Point: 64°F , 18°C
Humidity: 100%
Barometer: 29.96 inHg , 1014.6 hPa
Summary: Mist
Clouds: Clear
Visibility: 1 3/4 miles , 2.8 km
2018/08/16 08:04 KGFL 160804Z AUTO 00000KT 1 3/4SM BR CLR 18/18 A2996 RMK AO2 T01830183
KFIT - Fitchburg, Massachusetts, USA
Distance from station: SSE 65mi, 105km
Updated: 3:52am
Clear
Clear
 Wind from calm
Wind: Calm
Temperature: 70°F , 21°C
Dew Point: 66°F , 19°C
Humidity: 88%
Barometer: 29.94 inHg , 1013.9 hPa
Clouds: Clear
Visibility: 8 miles , 13 km
2018/08/16 07:52 KFIT 160752Z AUTO 00000KT 8SM CLR 21/19 A2994 RMK AO2 SLP138 T02110194
KDAW - Rochester, New Hampshire, USA
Distance from station: E 73mi, 118km
Updated: 3:51am
Clear
Clear
 Wind from WNW
Wind: WNW 7 mph , 11 km/h
Temperature: 73°F , 23°C
Dew Point: 66°F , 19°C
Humidity: 78%
Barometer: 29.90 inHg , 1012.5 hPa
Clouds: Clear
Visibility: 10 miles , 16 km
2018/08/16 07:51 KDAW 160751Z AUTO 30006KT 10SM CLR 23/19 A2990 RMK AO2 SLP122 T02330194
 
K1V4 - St. Johnsbury, Vermont, USA
Distance from station: NNE 74mi, 119km
Updated: 3:54am

 
Temperature: 66°F , 19°C
Dew Point: 66°F , 19°C
Humidity: 100%
Barometer: 29.92 inHg , 1013.2 hPa
2018/08/16 07:54 K1V4 160754Z AUTO 19/19 A2992 RMK AO1 SLP121 T01890189
KLWM - Lawrence, Massachusetts, USA
Distance from station: SE 77mi, 124km
Updated: 3:54am
Clear
Clear
 Wind from SW
Wind: SW 3 mph , 6 km/h
Temperature: 73°F , 23°C
Dew Point: 68°F , 20°C
Humidity: 83%
Barometer: 29.94 inHg , 1013.9 hPa
Clouds: Clear
Visibility: 10 miles , 16 km
2018/08/16 07:54 KLWM 160754Z AUTO 22003KT 10SM CLR 23/20 A2994 RMK AO2 SLP137 T02330200

free counter page views since 4/29/2009